createdAt,value
2022-10-08T00:01:09.638Z,23.90
2022-10-08T00:02:42.748Z,26.90
2022-10-08T00:04:17.675Z,32.88
2022-10-08T00:06:00.795Z,32.92
2022-10-08T00:07:34.094Z,34.05
2022-10-08T00:09:08.782Z,27.80
2022-10-08T00:10:41.186Z,30.42
2022-10-08T00:12:14.669Z,12.55
2022-10-08T00:13:48.436Z,26.63
2022-10-08T00:15:21.639Z,29.73
2022-10-08T00:16:55.076Z,21.20
2022-10-08T00:18:30.276Z,19.02
2022-10-08T00:20:05.882Z,15.13
2022-10-08T00:21:41.079Z,20.38
2022-10-08T00:23:14.918Z,22.10
2022-10-08T00:24:49.897Z,19.40
2022-10-08T00:26:25.722Z,15.60
2022-10-08T00:27:58.696Z,19.58
2022-10-08T00:29:33.991Z,23.42
2022-10-08T00:31:07.501Z,20.80
2022-10-08T00:32:40.817Z,20.15
2022-10-08T00:34:15.077Z,21.30
2022-10-08T00:35:50.324Z,11.73
2022-10-08T00:37:23.572Z,13.02
2022-10-08T00:38:57.887Z,11.57
2022-10-08T00:40:31.108Z,8.23
2022-10-08T00:42:05.071Z,12.23
2022-10-08T00:43:42.647Z,9.98
2022-10-08T00:45:15.778Z,17.05
2022-10-08T00:46:51.191Z,10.70
2022-10-08T00:48:26.090Z,13.75
2022-10-08T00:50:02.985Z,10.60
2022-10-08T00:51:38.184Z,10.10
2022-10-08T00:53:11.602Z,10.70
2022-10-08T00:54:44.886Z,7.78
2022-10-08T00:56:18.495Z,8.93
2022-10-08T00:57:52.607Z,9.85
2022-10-08T00:59:26.380Z,11.55
2022-10-08T01:01:00.524Z,10.05
2022-10-08T02:07:42.752Z,7.88
2022-10-08T02:09:15.426Z,8.20
2022-10-08T02:10:48.710Z,10.10
2022-10-08T02:12:23.967Z,11.13
2022-10-08T02:13:57.201Z,8.90
2022-10-08T02:15:39.788Z,9.23
2022-10-08T02:17:23.222Z,8.18
2022-10-08T02:19:05.088Z,9.60
2022-10-08T02:20:41.973Z,9.98
2022-10-08T02:22:19.674Z,9.35
2022-10-08T02:24:02.010Z,7.03
2022-10-08T02:25:41.330Z,11.85
2022-10-08T02:27:16.366Z,5.63
2022-10-08T02:28:56.180Z,8.68
2022-10-08T02:30:35.160Z,13.02
2022-10-08T02:32:18.783Z,9.43
2022-10-08T02:33:57.281Z,5.22
2022-10-08T02:35:36.162Z,9.45
2022-10-08T02:37:15.837Z,8.23
2022-10-08T02:38:53.870Z,9.93
2022-10-08T02:40:31.623Z,6.65
2022-10-08T02:42:10.467Z,6.95
2022-10-08T02:43:48.175Z,9.00
2022-10-08T02:45:25.219Z,10.10
2022-10-08T02:47:02.407Z,11.43
2022-10-08T02:48:42.463Z,18.40
2022-10-08T02:50:21.935Z,9.98
2022-10-08T02:51:56.189Z,10.15
2022-10-08T02:53:30.759Z,6.78
2022-10-08T02:55:08.233Z,9.25
2022-10-08T02:56:48.844Z,8.45
2022-10-08T02:58:23.462Z,10.00
2022-10-08T02:59:56.147Z,8.45
2022-10-08T03:01:39.300Z,11.85
2022-10-08T03:03:13.972Z,11.20
2022-10-08T03:04:53.284Z,13.00
2022-10-08T03:06:28.758Z,10.30
2022-10-08T03:08:04.694Z,9.88
2022-10-08T03:09:40.822Z,7.05
2022-10-08T03:11:15.246Z,10.80
2022-10-08T03:12:50.644Z,9.38
2022-10-08T03:14:26.295Z,13.38
2022-10-08T03:15:59.821Z,10.30
2022-10-08T03:17:38.042Z,15.10
2022-10-08T03:19:13.223Z,19.05
2022-10-08T03:20:51.941Z,22.80
2022-10-08T03:22:26.550Z,18.88
2022-10-08T03:24:00.089Z,21.70
2022-10-08T03:25:32.278Z,18.08
2022-10-08T03:27:05.705Z,20.30
2022-10-08T03:28:40.628Z,19.50
2022-10-08T03:30:14.847Z,23.00
2022-10-08T03:31:48.898Z,16.55
2022-10-08T03:33:21.300Z,15.05
2022-10-08T03:34:55.183Z,13.75
2022-10-08T03:36:29.881Z,17.95
2022-10-08T03:38:03.102Z,17.10
2022-10-08T03:39:35.370Z,19.17
2022-10-08T04:43:50.561Z,16.27
2022-10-08T04:45:23.847Z,18.02
2022-10-08T04:46:57.201Z,20.63
2022-10-08T04:48:29.479Z,16.13
2022-10-08T04:50:02.894Z,12.82
2022-10-08T04:51:36.097Z,17.10
2022-10-08T04:53:08.355Z,13.82
2022-10-08T04:54:41.561Z,12.73
2022-10-08T04:56:18.222Z,11.13
2022-10-08T04:57:51.596Z,13.80
2022-10-08T04:59:26.836Z,16.00
2022-10-08T05:01:04.211Z,14.45
2022-10-08T05:02:38.722Z,14.90
2022-10-08T05:04:10.938Z,8.65
2022-10-08T05:05:45.202Z,14.45
2022-10-08T05:07:18.531Z,13.50
2022-10-08T05:08:53.352Z,9.23
2022-10-08T05:10:26.887Z,8.82
2022-10-08T05:12:00.249Z,11.00
2022-10-08T05:13:32.623Z,9.48
2022-10-08T05:15:08.980Z,11.00
2022-10-08T05:16:42.175Z,7.00
2022-10-08T05:18:14.589Z,13.32
2022-10-08T05:19:47.756Z,7.80
2022-10-08T05:21:24.171Z,7.32
2022-10-08T05:22:56.303Z,11.77
2022-10-08T05:24:29.615Z,8.80
2022-10-08T05:26:02.529Z,8.43
2022-10-08T05:27:37.775Z,7.38
2022-10-08T05:29:10.826Z,7.20
2022-10-08T05:30:45.554Z,10.55
2022-10-08T05:32:28.879Z,8.88
2022-10-08T05:34:47.331Z,12.85
2022-10-08T05:36:43.110Z,16.05
2022-10-08T05:38:38.700Z,17.63
2022-10-08T05:40:18.267Z,11.85
2022-10-08T05:41:59.606Z,8.65
2022-10-08T05:43:41.319Z,12.77
2022-10-08T05:45:27.875Z,11.90
2022-10-08T05:47:28.838Z,11.63
2022-10-08T05:49:09.319Z,9.45
2022-10-08T05:50:43.335Z,8.80
2022-10-08T05:52:27.232Z,12.43
2022-10-08T05:54:14.087Z,10.07
2022-10-08T05:55:51.741Z,7.78
2022-10-08T05:57:25.839Z,9.80
2022-10-08T05:58:59.099Z,7.07
2022-10-08T06:00:32.336Z,10.27
2022-10-08T06:02:06.741Z,14.60
2022-10-08T06:03:41.858Z,17.80
2022-10-08T06:05:15.657Z,9.80
2022-10-08T06:06:49.019Z,16.08
2022-10-08T06:08:22.436Z,14.68
2022-10-08T06:09:55.630Z,12.27
2022-10-08T06:11:29.818Z,11.93
2022-10-08T06:13:02.978Z,11.82
2022-10-08T06:14:36.366Z,12.10
2022-10-08T06:16:11.743Z,11.57
2022-10-08T06:17:45.489Z,11.30
2022-10-08T06:19:20.130Z,11.73
2022-10-08T06:20:53.698Z,13.40
2022-10-08T06:22:26.835Z,19.85
2022-10-08T06:24:01.707Z,27.25
2022-10-08T06:25:38.245Z,15.18
2022-10-08T06:27:11.561Z,13.38
2022-10-08T06:28:43.998Z,10.77
2022-10-08T06:30:17.900Z,12.05
2022-10-08T06:31:51.001Z,13.38
2022-10-08T06:33:23.443Z,11.25
2022-10-08T06:34:58.126Z,14.43
2022-10-08T06:36:32.385Z,14.60
2022-10-08T06:38:06.397Z,14.80
2022-10-08T06:39:39.677Z,13.45
2022-10-08T06:41:11.840Z,10.50
2022-10-08T06:42:45.658Z,10.45
2022-10-08T06:44:19.323Z,10.90
2022-10-08T06:45:53.467Z,13.50
2022-10-08T06:47:26.599Z,13.40
2022-10-08T06:49:00.627Z,8.75
2022-10-08T06:50:36.201Z,9.43
2022-10-08T06:52:09.582Z,11.60
2022-10-08T06:53:43.642Z,12.00
2022-10-08T06:55:17.029Z,8.82
2022-10-08T06:56:50.213Z,8.88
2022-10-08T06:58:22.702Z,10.63
2022-10-08T06:59:57.949Z,12.63
2022-10-08T07:01:33.670Z,14.65
2022-10-08T07:03:07.395Z,14.20
2022-10-08T07:04:40.988Z,13.50
2022-10-08T07:06:16.137Z,13.85
2022-10-08T07:07:49.469Z,9.30
2022-10-08T07:09:22.635Z,12.55
2022-10-08T07:10:55.684Z,12.55
2022-10-08T07:12:28.841Z,20.95
2022-10-08T07:14:02.451Z,18.25
2022-10-08T07:15:34.595Z,26.67
2022-10-08T07:17:08.143Z,16.30
2022-10-08T07:18:41.208Z,16.77
2022-10-08T07:20:14.592Z,13.43
2022-10-08T07:21:49.105Z,24.70
2022-10-08T07:23:21.549Z,16.52
2022-10-08T07:24:54.643Z,31.40
2022-10-08T07:26:30.694Z,24.20
2022-10-08T07:28:04.092Z,20.92
2022-10-08T07:29:37.919Z,15.60
2022-10-08T07:31:14.668Z,21.08
2022-10-08T07:32:48.203Z,22.85
2022-10-08T07:34:22.103Z,38.95
2022-10-08T07:35:54.395Z,30.15
2022-10-08T07:37:29.062Z,24.30
2022-10-08T07:39:04.636Z,24.60
2022-10-08T07:40:36.949Z,17.17
2022-10-08T07:42:10.411Z,17.08
2022-10-08T07:43:44.075Z,23.45
2022-10-08T07:45:18.229Z,18.90
2022-10-08T07:46:53.516Z,19.75
2022-10-08T07:48:30.379Z,18.17
2022-10-08T07:50:07.371Z,12.10
2022-10-08T07:51:41.850Z,11.75
2022-10-08T07:53:15.508Z,9.35
2022-10-08T07:54:49.007Z,12.25
2022-10-08T07:56:23.615Z,26.73
2022-10-08T07:57:55.981Z,19.00
2022-10-08T07:59:29.210Z,32.35
2022-10-08T08:01:06.316Z,18.88
2022-10-08T08:02:39.772Z,19.17
2022-10-08T08:04:13.556Z,22.35
2022-10-08T08:05:46.859Z,25.95
2022-10-08T08:07:20.159Z,22.27
2022-10-08T08:08:54.718Z,25.80
2022-10-08T08:10:28.986Z,20.10
2022-10-08T08:12:02.229Z,19.65
2022-10-08T08:13:37.448Z,10.88
2022-10-08T08:15:11.777Z,14.40
2022-10-08T08:16:45.192Z,13.60
2022-10-08T08:18:18.526Z,10.95
2022-10-08T08:19:51.633Z,11.60
2022-10-08T08:21:27.186Z,21.63
2022-10-08T08:23:00.811Z,17.60
2022-10-08T08:24:35.387Z,13.60
2022-10-08T08:26:09.885Z,11.98
2022-10-08T08:27:43.406Z,13.00
2022-10-08T08:29:19.174Z,20.13
2022-10-08T08:30:51.471Z,6.57
2022-10-08T08:32:28.386Z,11.05
2022-10-08T08:34:02.792Z,11.73
2022-10-08T08:35:36.319Z,21.95
2022-10-08T08:37:09.553Z,9.05
2022-10-08T08:38:41.907Z,12.10
2022-10-08T08:40:16.627Z,9.10
2022-10-08T08:42:14.400Z,7.30
2022-10-08T08:43:48.313Z,8.00
2022-10-08T08:45:46.805Z,15.75
2022-10-08T08:47:25.376Z,15.15
2022-10-08T08:49:06.283Z,8.15
2022-10-08T08:50:46.662Z,13.55
2022-10-08T08:52:24.448Z,15.55
2022-10-08T08:53:57.853Z,6.35
2022-10-08T08:55:36.877Z,6.65
2022-10-08T08:57:22.984Z,8.90
2022-10-08T08:59:04.971Z,9.65
2022-10-08T09:00:42.838Z,10.60
2022-10-08T09:02:23.970Z,4.85
2022-10-08T09:04:04.878Z,7.35
2022-10-08T09:05:44.237Z,11.07
2022-10-08T09:07:21.853Z,7.30
2022-10-08T09:09:00.645Z,7.80
2022-10-08T09:10:40.552Z,5.80
2022-10-08T09:12:20.964Z,4.22
2022-10-08T09:14:01.319Z,4.75
2022-10-08T09:15:38.029Z,4.45
2022-10-08T09:17:16.748Z,4.68
2022-10-08T09:18:52.435Z,5.93
2022-10-08T09:20:26.565Z,5.72
2022-10-08T09:21:59.722Z,4.85
2022-10-08T09:23:33.542Z,5.97
2022-10-08T09:25:09.267Z,5.70
2022-10-08T09:26:44.372Z,4.03
2022-10-08T09:28:40.517Z,4.70
2022-10-08T09:30:36.241Z,5.13
2022-10-08T09:32:16.609Z,6.05
2022-10-08T09:34:06.427Z,7.57
2022-10-08T09:35:45.835Z,6.22
2022-10-08T09:37:25.424Z,7.97
2022-10-08T09:39:00.887Z,4.97
2022-10-08T09:40:34.056Z,4.78
2022-10-08T09:42:17.519Z,5.60
2022-10-08T09:44:11.209Z,6.35
2022-10-08T09:45:46.621Z,8.48
2022-10-08T09:47:23.000Z,6.38
2022-10-08T09:48:56.905Z,6.55
2022-10-08T09:50:30.149Z,6.60
2022-10-08T09:52:08.137Z,8.25
2022-10-08T09:53:44.392Z,4.90
2022-10-08T09:55:22.492Z,5.88
2022-10-08T09:56:59.013Z,3.92
2022-10-08T09:58:50.289Z,7.18
2022-10-08T10:00:26.236Z,5.65
2022-10-08T10:02:00.293Z,6.88
2022-10-08T10:03:36.144Z,4.82
2022-10-08T10:05:23.035Z,8.18
2022-10-08T10:06:56.667Z,5.15
2022-10-08T10:08:51.847Z,8.55
2022-10-08T10:10:29.135Z,3.40
2022-10-08T10:12:11.532Z,4.90
2022-10-08T10:13:49.000Z,6.90
2022-10-08T10:15:27.937Z,5.55
2022-10-08T10:17:04.772Z,9.43
2022-10-08T10:18:44.730Z,3.47
2022-10-08T10:20:23.133Z,2.33
2022-10-08T10:22:02.457Z,3.95
2022-10-08T10:23:41.481Z,4.95
2022-10-08T10:25:20.913Z,5.90
2022-10-08T10:26:58.282Z,3.60
2022-10-08T10:28:40.142Z,4.50
2022-10-08T10:30:21.167Z,8.82
2022-10-08T10:31:59.763Z,6.00
2022-10-08T10:33:36.557Z,4.95
2022-10-08T10:35:16.476Z,6.57
2022-10-08T10:36:52.947Z,4.40
2022-10-08T10:38:28.817Z,3.35
2022-10-08T10:40:18.736Z,5.38
2022-10-08T10:41:56.946Z,3.15
2022-10-08T10:43:40.764Z,4.55
2022-10-08T10:45:21.958Z,5.22
2022-10-08T10:46:59.233Z,5.55
2022-10-08T10:48:32.423Z,2.22
2022-10-08T10:50:08.726Z,4.93
2022-10-08T10:52:01.722Z,3.88
2022-10-08T10:53:47.033Z,5.28
2022-10-08T10:55:24.896Z,7.70
2022-10-08T10:57:02.924Z,3.30
2022-10-08T10:58:44.750Z,5.38
2022-10-08T11:00:25.047Z,3.65
2022-10-08T11:02:10.552Z,4.75
2022-10-08T11:03:51.450Z,6.43
2022-10-08T11:05:26.922Z,3.00
2022-10-08T11:07:06.492Z,7.35
2022-10-08T11:08:45.998Z,4.65
2022-10-08T11:10:33.372Z,7.35
2022-10-08T11:12:22.183Z,3.05
2022-10-08T11:14:05.890Z,6.47
2022-10-08T11:15:46.893Z,4.00
2022-10-08T11:17:35.943Z,11.90
2022-10-08T11:19:20.134Z,6.15
2022-10-08T11:21:07.737Z,2.20
2022-10-08T11:22:50.485Z,3.17
2022-10-08T11:24:48.729Z,5.15
2022-10-08T11:26:28.422Z,4.65
2022-10-08T11:28:15.297Z,3.90
2022-10-08T11:29:57.524Z,3.17
2022-10-08T11:31:41.783Z,4.28
2022-10-08T11:33:16.705Z,3.05
2022-10-08T11:34:54.436Z,3.88
2022-10-08T11:36:37.787Z,7.78
2022-10-08T11:38:18.552Z,4.65
2022-10-08T11:40:00.881Z,5.63
2022-10-08T11:41:42.448Z,5.55
2022-10-08T11:43:26.288Z,3.67
2022-10-08T11:45:15.088Z,6.13
2022-10-08T11:46:49.880Z,6.53
2022-10-08T11:48:34.576Z,3.63
2022-10-08T11:50:24.466Z,3.05
2022-10-08T11:51:57.920Z,6.55
2022-10-08T11:53:31.191Z,1.90
2022-10-08T11:55:04.731Z,10.25
2022-10-08T11:56:41.520Z,3.15
2022-10-08T11:58:23.986Z,5.07
2022-10-08T12:00:06.927Z,4.75
2022-10-08T12:01:54.175Z,5.22
2022-10-08T12:03:30.602Z,4.63
2022-10-08T12:05:35.765Z,6.65
2022-10-08T12:07:29.938Z,2.05
2022-10-08T12:09:05.936Z,7.13
2022-10-08T12:10:40.836Z,5.72
2022-10-08T12:12:14.394Z,5.70
2022-10-08T12:14:26.029Z,3.55
2022-10-08T12:16:11.105Z,3.38
2022-10-08T12:17:53.640Z,3.70
2022-10-08T12:20:07.214Z,2.13
2022-10-08T12:21:50.509Z,2.28
2022-10-08T12:23:39.319Z,4.35
2022-10-08T12:28:50.683Z,19.95
2022-10-08T12:30:48.215Z,6.10
2022-10-08T12:32:21.619Z,6.28
2022-10-08T12:34:05.096Z,6.57
2022-10-08T12:35:59.947Z,2.55
2022-10-08T12:38:01.187Z,2.58
2022-10-08T12:39:40.666Z,3.70
2022-10-08T12:41:22.261Z,8.82
2022-10-08T12:43:07.082Z,3.15
2022-10-08T12:44:50.989Z,32.15
2022-10-08T12:46:37.851Z,10.02
2022-10-08T12:48:21.230Z,14.50
2022-10-08T12:50:02.275Z,5.97
2022-10-08T12:51:46.735Z,6.55
2022-10-08T12:53:20.147Z,2.72
2022-10-08T12:54:54.931Z,4.05
2022-10-08T12:56:31.261Z,4.90
2022-10-08T12:58:04.580Z,3.35
2022-10-08T12:59:41.725Z,2.63
2022-10-08T13:01:17.807Z,5.60
2022-10-08T13:03:01.232Z,5.18
2022-10-08T13:04:34.738Z,4.90
2022-10-08T13:06:33.018Z,4.75
2022-10-08T13:08:30.065Z,4.75
2022-10-08T13:10:18.556Z,3.25
2022-10-08T13:11:56.274Z,4.50
2022-10-08T13:13:50.726Z,4.35
2022-10-08T13:15:25.190Z,5.47
2022-10-08T13:16:59.228Z,3.90
2022-10-08T13:18:34.461Z,5.63
2022-10-08T13:20:13.598Z,2.00
2022-10-08T13:21:58.751Z,3.10
2022-10-08T13:23:37.863Z,6.07
2022-10-08T13:25:36.614Z,7.75
2022-10-08T13:27:24.517Z,3.25
2022-10-08T13:29:19.295Z,2.72
2022-10-08T13:30:57.449Z,2.78
2022-10-08T13:32:35.072Z,6.18
2022-10-08T13:34:18.303Z,5.10
2022-10-08T13:35:53.829Z,8.88
2022-10-08T13:37:31.886Z,8.02
2022-10-08T13:39:05.699Z,2.10
2022-10-08T13:40:39.600Z,4.82
2022-10-08T13:42:19.441Z,5.35
2022-10-08T13:43:52.972Z,3.40
2022-10-08T13:45:28.459Z,3.90
2022-10-08T13:47:03.928Z,6.95
2022-10-08T13:48:44.306Z,7.80
2022-10-08T13:50:18.364Z,7.65
2022-10-08T13:51:51.615Z,4.25
2022-10-08T13:53:27.551Z,4.40
2022-10-08T13:55:03.398Z,5.70
2022-10-08T13:56:36.860Z,3.50
2022-10-08T13:58:14.366Z,6.15
2022-10-08T13:59:46.632Z,4.13
2022-10-08T14:01:21.277Z,9.90
2022-10-08T14:02:54.694Z,4.18
2022-10-08T14:04:28.209Z,4.50
2022-10-08T14:06:01.597Z,3.65
2022-10-08T14:07:37.108Z,3.92
2022-10-08T14:09:16.849Z,4.82
2022-10-08T14:10:51.891Z,7.53
2022-10-08T14:12:28.680Z,5.97
2022-10-08T14:14:00.995Z,4.03
2022-10-08T14:15:34.338Z,3.33
2022-10-08T14:17:07.649Z,4.22
2022-10-08T14:18:41.037Z,11.40
2022-10-08T14:20:14.205Z,3.72
2022-10-08T14:21:49.389Z,8.05
2022-10-08T14:23:22.659Z,4.10
2022-10-08T14:24:57.487Z,4.40
2022-10-08T14:26:31.431Z,4.40
2022-10-08T14:28:04.988Z,4.95
2022-10-08T14:29:38.750Z,4.75
2022-10-08T14:31:14.324Z,4.72
2022-10-08T14:32:48.116Z,4.13
2022-10-08T14:34:21.821Z,5.80
2022-10-08T14:35:54.979Z,7.30
2022-10-08T14:37:28.262Z,7.72
2022-10-08T14:39:01.969Z,4.60
2022-10-08T14:40:37.380Z,6.03
2022-10-08T14:42:10.587Z,5.82
2022-10-08T14:43:44.145Z,3.15
2022-10-08T14:45:17.629Z,4.43
2022-10-08T14:46:52.072Z,4.18
2022-10-08T14:48:25.182Z,5.45
2022-10-08T14:49:58.925Z,6.38
2022-10-08T14:51:38.358Z,9.48
2022-10-08T14:53:11.783Z,6.07
2022-10-08T14:54:45.086Z,7.65
2022-10-08T14:56:20.146Z,6.32
2022-10-08T14:57:53.380Z,18.50
2022-10-08T14:59:26.642Z,8.93
2022-10-08T15:00:59.846Z,4.13
2022-10-08T15:02:34.385Z,6.80
2022-10-08T15:04:08.264Z,8.63
2022-10-08T15:05:41.716Z,13.38
2022-10-08T15:07:15.257Z,6.28
2022-10-08T15:08:48.671Z,12.07
2022-10-08T15:10:21.850Z,8.57
2022-10-08T15:11:56.568Z,8.30
2022-10-08T15:13:31.010Z,20.95
2022-10-08T15:15:04.417Z,14.13
2022-10-08T15:16:39.699Z,8.25
2022-10-08T15:18:13.018Z,9.65
2022-10-08T15:19:46.845Z,16.75
2022-10-08T15:21:20.141Z,14.70
2022-10-08T15:22:53.453Z,7.68
2022-10-08T15:24:26.896Z,11.20
2022-10-08T15:26:02.177Z,10.48
2022-10-08T15:27:36.884Z,11.05
2022-10-08T15:29:10.035Z,14.20
2022-10-08T15:30:44.562Z,10.75
2022-10-08T15:32:18.067Z,13.93
2022-10-08T15:33:53.560Z,10.65
2022-10-08T15:35:26.793Z,10.02
2022-10-08T15:37:00.127Z,10.18
2022-10-08T15:38:33.382Z,15.10
2022-10-08T15:40:07.918Z,16.10
2022-10-08T15:41:43.209Z,17.67
2022-10-08T15:43:17.820Z,20.40
2022-10-08T15:44:51.126Z,8.15
2022-10-08T15:46:26.192Z,7.82
2022-10-08T15:47:59.322Z,8.25
2022-10-08T15:49:33.561Z,10.65
2022-10-08T15:51:07.743Z,8.63
2022-10-08T15:52:45.507Z,16.35
2022-10-08T15:54:19.559Z,18.13
2022-10-08T15:55:56.272Z,12.48
2022-10-08T15:57:29.745Z,17.58
2022-10-08T15:59:05.308Z,19.23
2022-10-08T16:00:38.518Z,17.83
2022-10-08T16:02:16.979Z,9.75
2022-10-08T16:03:53.322Z,16.23
2022-10-08T16:05:26.565Z,14.43
2022-10-08T16:06:59.726Z,17.25
2022-10-08T16:08:33.782Z,10.73
2022-10-08T16:10:08.237Z,10.75
2022-10-08T16:11:41.410Z,15.77
2022-10-08T16:13:14.555Z,11.13
2022-10-08T16:14:49.704Z,9.05
2022-10-08T16:16:23.593Z,9.80
2022-10-08T16:17:56.890Z,12.07
2022-10-08T16:19:30.237Z,8.10
2022-10-08T16:21:04.148Z,6.82
2022-10-08T16:22:37.538Z,9.88
2022-10-08T16:24:11.102Z,13.85
2022-10-08T16:25:45.614Z,13.15
2022-10-08T16:27:19.100Z,13.52
2022-10-08T16:28:56.104Z,11.57
2022-10-08T16:30:30.829Z,7.50
2022-10-08T16:32:04.197Z,7.93
2022-10-08T16:33:37.619Z,10.35
2022-10-08T16:35:11.418Z,9.52
2022-10-08T16:36:45.965Z,12.70
2022-10-08T16:38:19.109Z,9.98
2022-10-08T16:39:52.610Z,11.27
2022-10-08T16:41:28.356Z,10.05
2022-10-08T16:43:01.547Z,11.40
2022-10-08T16:44:34.777Z,12.18
2022-10-08T16:46:16.503Z,8.23
2022-10-08T16:47:49.937Z,9.35
2022-10-08T16:49:26.481Z,10.15
2022-10-08T16:51:04.047Z,16.33
2022-10-08T16:52:38.000Z,14.90
2022-10-08T16:54:12.945Z,17.10
2022-10-08T16:55:46.120Z,22.75
2022-10-08T16:57:20.508Z,23.00
2022-10-08T16:58:54.832Z,15.25
2022-10-08T17:00:28.285Z,20.63
2022-10-08T17:02:03.506Z,18.15
2022-10-08T17:03:36.593Z,17.30
2022-10-08T17:05:10.201Z,15.63
2022-10-08T17:06:43.691Z,18.10
2022-10-08T17:08:16.973Z,13.13
2022-10-08T17:09:50.116Z,11.20
2022-10-08T17:11:22.925Z,13.45
2022-10-08T17:12:56.221Z,14.27
2022-10-08T17:14:30.539Z,13.50
2022-10-08T17:16:07.467Z,21.52
2022-10-08T17:17:42.210Z,18.00
2022-10-08T17:19:15.751Z,70.30
2022-10-08T17:20:50.093Z,21.63
2022-10-08T17:22:23.307Z,56.05
2022-10-08T17:23:59.187Z,34.28
2022-10-08T17:25:32.616Z,22.45
2022-10-08T17:27:06.295Z,15.80
2022-10-08T17:28:41.536Z,13.65
2022-10-08T17:30:15.836Z,12.68
2022-10-08T17:31:49.764Z,11.57
2022-10-08T17:33:23.430Z,11.15
2022-10-08T17:34:56.611Z,11.55
2022-10-08T17:36:31.908Z,15.20
2022-10-08T17:38:05.881Z,26.35
2022-10-08T17:39:39.047Z,16.30
2022-10-08T17:41:13.922Z,27.85
2022-10-08T17:42:47.354Z,51.55
2022-10-08T17:44:20.930Z,28.20
2022-10-08T17:45:53.860Z,27.85
2022-10-08T17:47:29.201Z,28.05
2022-10-08T17:49:04.945Z,26.33
2022-10-08T17:50:38.651Z,25.73
2022-10-08T17:52:11.884Z,30.38
2022-10-08T17:53:45.393Z,26.52
2022-10-08T17:55:19.641Z,22.10
2022-10-08T17:56:53.225Z,20.50
2022-10-08T17:58:26.612Z,15.02
2022-10-08T17:59:59.929Z,17.63
2022-10-08T18:01:35.935Z,42.65
2022-10-08T18:03:10.342Z,30.08
2022-10-08T18:04:44.927Z,32.05
2022-10-08T18:06:18.581Z,27.65
2022-10-08T18:07:51.167Z,28.42
2022-10-08T18:09:24.595Z,24.45
2022-10-08T18:10:57.849Z,18.73
2022-10-08T18:12:31.031Z,15.63
2022-10-08T18:14:05.730Z,15.98
2022-10-08T18:15:39.108Z,10.82
2022-10-08T18:17:12.356Z,13.00
2022-10-08T18:18:45.518Z,13.10
2022-10-08T18:20:20.260Z,10.15
2022-10-08T18:21:53.935Z,10.07
2022-10-08T18:23:29.182Z,13.20
2022-10-08T18:25:04.071Z,14.75
2022-10-08T18:26:37.479Z,13.65
2022-10-08T18:28:09.704Z,8.52
2022-10-08T18:29:43.024Z,10.60
2022-10-08T18:31:17.555Z,9.68
2022-10-08T18:32:51.154Z,8.02
2022-10-08T18:34:25.751Z,13.57
2022-10-08T18:36:08.059Z,8.43
2022-10-08T18:37:41.292Z,9.45
2022-10-08T18:39:16.295Z,10.25
2022-10-08T18:40:49.602Z,10.27
2022-10-08T18:42:22.873Z,15.20
2022-10-08T18:43:57.066Z,9.20
2022-10-08T18:45:31.031Z,11.13
2022-10-08T18:47:05.501Z,10.68
2022-10-08T18:48:39.298Z,10.68
2022-10-08T18:50:12.558Z,7.45
2022-10-08T18:51:48.146Z,7.32
2022-10-08T18:53:21.335Z,8.32
2022-10-08T18:54:55.073Z,8.65
2022-10-08T18:56:30.466Z,17.35
2022-10-08T18:58:03.649Z,14.45
2022-10-08T18:59:36.952Z,10.48
2022-10-08T19:01:17.679Z,10.43
2022-10-08T19:02:54.343Z,12.13
2022-10-08T19:04:27.903Z,11.40
2022-10-08T19:06:00.562Z,11.38
2022-10-08T19:07:35.605Z,18.10
2022-10-08T19:09:09.157Z,16.70
2022-10-08T19:10:42.819Z,20.08
2022-10-08T19:12:16.072Z,22.58
2022-10-08T19:13:50.944Z,17.63
2022-10-08T19:15:24.127Z,19.45
2022-10-08T19:16:57.477Z,11.27
2022-10-08T19:18:30.751Z,8.18
2022-10-08T19:20:04.034Z,12.82
2022-10-08T19:21:38.759Z,9.70
2022-10-08T19:23:13.596Z,11.68
2022-10-08T19:24:47.011Z,11.80
2022-10-08T19:26:19.677Z,9.18
2022-10-08T19:27:52.901Z,10.85
2022-10-08T19:29:29.178Z,11.30
2022-10-08T19:31:02.561Z,13.57
2022-10-08T19:32:35.785Z,12.18
2022-10-08T19:34:09.295Z,14.68
2022-10-08T19:35:42.978Z,23.30
2022-10-08T19:37:16.110Z,26.75
2022-10-08T19:38:53.977Z,23.80
2022-10-08T19:40:27.184Z,16.55
2022-10-08T19:42:00.593Z,15.68
2022-10-08T19:43:33.847Z,18.85
2022-10-08T19:45:07.917Z,16.77
2022-10-08T19:46:41.155Z,11.65
2022-10-08T19:48:15.274Z,15.40
2022-10-08T19:49:48.489Z,11.80
2022-10-08T19:51:22.735Z,13.38
2022-10-08T19:52:56.068Z,18.92
2022-10-08T19:54:31.125Z,15.75
2022-10-08T19:56:04.719Z,16.08
2022-10-08T19:57:38.626Z,13.32
2022-10-08T19:59:13.485Z,16.92
2022-10-08T20:00:47.372Z,15.10
2022-10-08T20:02:20.623Z,22.02
2022-10-08T20:03:55.148Z,26.08
2022-10-08T20:05:28.335Z,24.98
2022-10-08T20:07:02.332Z,25.75
2022-10-08T20:08:35.119Z,23.05
2022-10-08T20:10:10.754Z,18.90
2022-10-08T20:11:45.923Z,16.25
2022-10-08T20:13:19.384Z,15.00
2022-10-08T20:14:52.976Z,15.13
2022-10-08T20:16:28.373Z,11.35
2022-10-08T20:18:01.708Z,18.00
2022-10-08T20:19:35.274Z,18.95
2022-10-08T20:21:10.135Z,16.90
2022-10-08T20:22:43.262Z,13.30
2022-10-08T20:24:17.283Z,17.45
2022-10-08T20:25:52.019Z,14.63
2022-10-08T20:27:25.364Z,16.15
2022-10-08T20:29:00.915Z,15.27
2022-10-08T20:30:34.225Z,12.48
2022-10-08T20:32:07.532Z,12.90
2022-10-08T20:33:41.797Z,15.75
2022-10-08T20:35:15.268Z,13.77
2022-10-08T20:36:49.781Z,12.93
2022-10-08T20:38:22.938Z,14.30
2022-10-08T20:39:56.222Z,14.55
2022-10-08T20:41:31.516Z,15.00
2022-10-08T20:43:04.752Z,16.00
2022-10-08T20:44:37.957Z,14.20
2022-10-08T20:46:12.953Z,13.68
2022-10-08T20:47:46.122Z,11.57
2022-10-08T20:49:20.138Z,11.23
2022-10-08T20:50:53.328Z,14.48
2022-10-08T20:52:26.877Z,13.05
2022-10-08T20:54:02.703Z,11.85
2022-10-08T20:55:38.318Z,15.02
2022-10-08T20:57:13.070Z,17.25
2022-10-08T20:58:47.378Z,16.08
2022-10-08T21:00:20.752Z,15.70
2022-10-08T21:01:54.098Z,14.07
2022-10-08T21:03:26.281Z,13.77
2022-10-08T21:04:59.493Z,13.55
2022-10-08T21:06:37.770Z,16.60
2022-10-08T21:08:10.973Z,14.65
2022-10-08T21:09:44.260Z,13.85
2022-10-08T21:11:19.701Z,20.70
2022-10-08T21:12:54.251Z,19.30
2022-10-08T21:14:27.426Z,22.35
2022-10-08T21:16:00.846Z,17.98
2022-10-08T21:17:34.413Z,16.63
2022-10-08T21:19:11.112Z,19.00
2022-10-08T21:20:44.892Z,16.65
2022-10-08T21:22:18.027Z,13.57
2022-10-08T21:23:51.862Z,18.88
2022-10-08T21:25:25.639Z,22.45
2022-10-08T21:26:58.859Z,20.45
2022-10-08T21:28:32.464Z,19.42
2022-10-08T21:30:06.460Z,18.33
2022-10-08T21:31:41.110Z,18.55
2022-10-08T21:33:14.395Z,13.55
2022-10-08T21:34:47.531Z,13.77
2022-10-08T21:36:22.317Z,21.10
2022-10-08T21:37:55.588Z,18.25
2022-10-08T21:39:28.771Z,16.08
2022-10-08T21:41:03.067Z,17.30
2022-10-08T21:42:36.991Z,14.55
2022-10-08T21:44:11.648Z,17.85
2022-10-08T21:45:54.940Z,12.50
2022-10-08T21:47:29.071Z,14.60
2022-10-08T21:49:04.192Z,13.55
2022-10-08T21:50:37.830Z,13.60
2022-10-08T21:52:11.051Z,15.57
2022-10-08T21:53:46.370Z,16.90
2022-10-08T21:55:19.866Z,19.05
2022-10-08T21:56:54.739Z,15.75
2022-10-08T21:58:29.721Z,12.57
2022-10-08T22:00:08.312Z,10.60
2022-10-08T22:01:48.007Z,10.35
2022-10-08T22:03:21.885Z,10.38
2022-10-08T22:04:55.095Z,9.43
2022-10-08T22:06:29.085Z,14.20
2022-10-08T22:08:02.191Z,10.13
2022-10-08T22:09:35.763Z,14.32
2022-10-08T22:11:07.940Z,11.13
2022-10-08T22:12:41.261Z,13.38
2022-10-08T22:14:14.891Z,11.30
2022-10-08T22:15:54.477Z,16.40
2022-10-08T22:17:27.649Z,11.32
2022-10-08T22:18:59.957Z,13.07
2022-10-08T22:20:33.114Z,16.65
2022-10-08T22:22:06.437Z,13.57
2022-10-08T22:23:40.083Z,16.02
2022-10-08T22:25:13.516Z,14.57
2022-10-08T22:26:48.531Z,16.20
2022-10-08T22:28:22.747Z,12.43
2022-10-08T22:29:55.965Z,12.82
2022-10-08T22:31:31.203Z,9.98
2022-10-08T22:33:04.451Z,17.50
2022-10-08T22:34:37.696Z,14.75
2022-10-08T22:36:12.985Z,14.68
2022-10-08T22:37:46.318Z,10.73
2022-10-08T22:39:19.474Z,14.15
2022-10-08T22:40:51.915Z,10.18
2022-10-08T22:42:25.078Z,10.30
2022-10-08T22:43:59.273Z,13.07
2022-10-08T22:45:32.686Z,10.02
2022-10-08T22:47:07.369Z,9.23
2022-10-08T22:48:40.701Z,9.77
2022-10-08T22:50:14.018Z,7.60
2022-10-08T22:51:47.382Z,11.10
2022-10-08T22:53:19.601Z,7.57
2022-10-08T22:54:53.160Z,10.98
2022-10-08T22:56:28.991Z,9.05
2022-10-08T22:58:01.156Z,10.10
2022-10-08T22:59:34.793Z,8.82
2022-10-08T23:01:08.969Z,8.73
2022-10-08T23:02:43.539Z,13.23
2022-10-08T23:04:16.833Z,8.90
2022-10-08T23:05:49.069Z,12.18
2022-10-08T23:07:22.222Z,9.43
2022-10-08T23:08:58.344Z,8.73